createdAt,value
2023-04-14T00:01:16.968Z,6.2
2023-04-14T00:03:20.751Z,6.3
2023-04-14T00:05:24.328Z,13.8
2023-04-14T00:11:38.272Z,7.1
2023-04-14T00:13:41.944Z,6.2
2023-04-14T00:15:45.590Z,3.6
2023-04-14T00:17:49.362Z,7.4
2023-04-14T00:19:52.911Z,5.2
2023-04-14T00:24:03.322Z,5.3
2023-04-14T00:30:14.309Z,2.7
2023-04-14T00:32:18.031Z,4.9
2023-04-14T00:40:35.678Z,13.4
2023-04-14T00:42:39.337Z,7.3
2023-04-14T00:44:43.005Z,4.2
2023-04-14T00:46:46.627Z,8.1
2023-04-14T00:48:50.293Z,5
2023-04-14T00:50:57.064Z,11.4
2023-04-14T00:56:07.702Z,14.5
2023-04-14T01:00:15.005Z,10.1
2023-04-14T01:06:29.089Z,10.5
2023-04-14T01:08:32.708Z,6.9
2023-04-14T01:10:36.383Z,4.4
2023-04-14T01:12:39.995Z,5.6
2023-04-14T01:14:43.672Z,10.2
2023-04-14T01:16:47.372Z,4.7
2023-04-14T01:18:54.097Z,7.7
2023-04-14T01:20:57.776Z,7.8
2023-04-14T01:23:01.413Z,5.1
2023-04-14T01:25:05.075Z,12
2023-04-14T01:27:08.761Z,11.1
2023-04-14T01:29:12.410Z,15.3
2023-04-14T01:31:16.765Z,10.2
2023-04-14T01:33:25.010Z,11.7
2023-04-14T01:35:28.652Z,10.7
2023-04-14T01:37:32.261Z,8.1
2023-04-14T01:39:35.957Z,12.4
2023-04-14T01:53:04.378Z,8.1
2023-04-14T01:59:15.322Z,8.2
2023-04-14T02:01:22.071Z,6.5
2023-04-14T02:03:25.861Z,11.5
2023-04-14T02:05:29.429Z,8
2023-04-14T02:09:36.749Z,8.6
2023-04-14T02:11:40.421Z,5.4
2023-04-14T02:13:44.036Z,10.3
2023-04-14T02:15:50.781Z,9.8
2023-04-14T02:17:54.492Z,11.9
2023-04-14T02:22:01.700Z,16.2
2023-04-14T02:24:05.438Z,9.2
2023-04-14T02:26:09.002Z,16.8
2023-04-14T02:28:12.728Z,18.3
2023-04-14T02:30:19.386Z,18.2
2023-04-14T02:32:23.188Z,18.9
2023-04-14T02:34:26.798Z,23.3
2023-04-14T02:36:30.379Z,20.3
2023-04-14T02:38:34.111Z,19.5
2023-04-14T02:40:37.808Z,22.5
2023-04-14T02:42:41.469Z,27.4
2023-04-14T02:44:48.153Z,23.4
2023-04-14T02:46:51.835Z,20.4
2023-04-14T02:48:55.472Z,24.2
2023-04-14T02:51:19.899Z,23.8
2023-04-14T02:53:23.592Z,21.5
2023-04-14T02:55:27.234Z,19.9
2023-04-14T03:07:52.391Z,10.8
2023-04-14T03:09:56.134Z,15
2023-04-14T03:12:02.921Z,14.3
2023-04-14T03:20:17.530Z,23.5
2023-04-14T03:22:21.232Z,16.6
2023-04-14T03:30:39.125Z,13.5
2023-04-14T03:32:42.874Z,14.4
2023-04-14T03:41:00.684Z,11.1
2023-04-14T03:43:04.356Z,12.3
2023-04-14T03:46:11.706Z,10.7
2023-04-14T03:48:15.224Z,16.1
2023-04-14T03:50:18.984Z,13
2023-04-14T03:52:22.689Z,14.1
2023-04-14T03:54:29.427Z,11.8
2023-04-14T03:56:33.090Z,8.9
2023-04-14T04:04:48.062Z,10.2
2023-04-14T04:06:51.768Z,11.8
2023-04-14T04:08:58.818Z,12.8
2023-04-14T04:13:06.032Z,7.4
2023-04-14T04:19:17.188Z,15.2
2023-04-14T04:21:20.927Z,7.5
2023-04-14T04:23:27.661Z,13.6
2023-04-14T04:25:31.394Z,17.4
2023-04-14T04:29:38.805Z,13.6
2023-04-14T04:31:42.623Z,12.7
2023-04-14T04:33:46.310Z,18.2
2023-04-14T04:35:49.966Z,17.3
2023-04-14T04:37:56.742Z,15
2023-04-14T04:43:07.576Z,23
2023-04-14T04:45:11.286Z,13.3
2023-04-14T04:47:15.012Z,21.4
2023-04-14T04:51:25.626Z,22.5
2023-04-14T04:55:33.151Z,21.4
2023-04-14T04:57:36.914Z,17.2
2023-04-14T04:59:40.669Z,18.7
2023-04-14T05:01:44.548Z,21.1
2023-04-14T05:03:48.172Z,17.1
2023-04-14T05:05:54.864Z,16.2
2023-04-14T05:07:58.532Z,27.4
2023-04-14T05:10:02.348Z,19.1
2023-04-14T05:12:05.996Z,21.1
2023-04-14T05:20:25.028Z,25.8
2023-04-14T05:40:05.140Z,29.5
2023-04-14T05:44:12.537Z,40.9
2023-04-14T05:48:23.173Z,50.5
2023-04-14T05:50:26.921Z,51.2
2023-04-14T05:52:30.558Z,62.5
2023-04-14T05:54:34.246Z,51.8
2023-04-14T05:58:41.581Z,58.9
2023-04-14T06:00:45.150Z,70.2
2023-04-14T06:02:52.026Z,78.9
2023-04-14T06:04:55.744Z,65.2
2023-04-14T06:06:59.191Z,67.9
2023-04-14T06:13:10.132Z,53.4
2023-04-14T06:17:20.535Z,48.6
2023-04-14T06:19:24.174Z,38.8
2023-04-14T06:21:27.824Z,34.9
2023-04-14T06:23:31.511Z,24.9
2023-04-14T06:25:35.109Z,19.2
2023-04-14T06:27:38.756Z,31.1
2023-04-14T06:31:49.149Z,10.2
2023-04-14T06:33:52.771Z,7.3
2023-04-14T06:35:56.421Z,8.8
2023-04-14T06:48:42.074Z,9.6
2023-04-14T06:52:49.333Z,10.2
2023-04-14T06:54:53.008Z,11.3
2023-04-14T06:59:03.314Z,9.4
2023-04-14T07:03:10.625Z,8.6
2023-04-14T07:07:17.816Z,15.7
2023-04-14T07:09:21.439Z,12.4
2023-04-14T07:13:31.746Z,7.1
2023-04-14T07:15:35.397Z,8.6
2023-04-14T07:17:39.055Z,12.9
2023-04-14T07:19:42.584Z,15.3
2023-04-14T07:21:46.194Z,8.3
2023-04-14T07:23:49.802Z,8.2
2023-04-14T07:25:53.403Z,14.1
2023-04-14T07:28:03.486Z,12.5
2023-04-14T07:30:05.198Z,8.5
2023-04-14T07:35:15.902Z,8
2023-04-14T07:37:19.339Z,17.1
2023-04-14T07:47:40.370Z,11.4
2023-04-14T07:58:01.242Z,6.5
2023-04-14T08:04:12.048Z,12.2
2023-04-14T08:08:19.023Z,8.3
2023-04-14T08:10:25.640Z,5.5
2023-04-14T08:16:36.528Z,7.2
2023-04-14T08:18:39.832Z,10.4
2023-04-14T08:20:43.363Z,14.6
2023-04-14T08:22:46.811Z,4.7
2023-04-14T08:24:53.419Z,9.1
2023-04-14T08:26:56.935Z,4.2
2023-04-14T08:29:00.759Z,7.6
2023-04-14T08:30:03.771Z,8.1
2023-04-14T08:32:07.444Z,9.5
2023-04-14T08:34:10.802Z,6.6
2023-04-14T08:36:14.315Z,11.3
2023-04-14T08:38:20.923Z,13.7
2023-04-14T08:40:24.477Z,5.7
2023-04-14T08:42:27.918Z,10.7
2023-04-14T08:54:52.270Z,4.9
2023-04-14T08:58:59.309Z,8.1
2023-04-14T09:01:02.801Z,7.4
2023-04-14T09:03:06.417Z,10.3
2023-04-14T09:05:09.751Z,2.4
2023-04-14T09:07:16.375Z,6.9
2023-04-14T09:09:19.799Z,7.4
2023-04-14T09:13:26.829Z,4
2023-04-14T09:15:30.286Z,7.2
2023-04-14T09:21:51.879Z,1.2
2023-04-14T09:23:47.299Z,7.7
2023-04-14T09:25:50.727Z,10.5
2023-04-14T09:33:04.377Z,5.6
2023-04-14T09:35:10.853Z,3.9
2023-04-14T09:39:17.737Z,7.2
2023-04-14T09:45:28.101Z,4.5
2023-04-14T09:47:31.646Z,1.5
2023-04-14T09:49:38.075Z,5.7
2023-04-14T09:51:41.441Z,5.7
2023-04-14T09:53:46.465Z,5.7
2023-04-14T09:55:48.273Z,1.3
2023-04-14T09:57:51.747Z,3.3
2023-04-14T09:59:55.145Z,5.6
2023-04-14T10:01:58.727Z,3.8
2023-04-14T10:04:05.095Z,5.4
2023-04-14T10:06:08.433Z,5.7
2023-04-14T10:08:11.769Z,6.4
2023-04-14T10:10:16.835Z,9.2
2023-04-14T10:12:18.509Z,1.6
2023-04-14T10:14:21.919Z,5.6
2023-04-14T10:18:31.866Z,7
2023-04-14T10:20:35.188Z,9.8
2023-04-14T10:22:40.881Z,4.9
2023-04-14T10:25:00.196Z,1.8
2023-04-14T10:27:03.541Z,3.5
2023-04-14T10:29:06.851Z,3.5
2023-04-14T10:31:13.212Z,7.5
2023-04-14T10:33:16.396Z,3
2023-04-14T10:35:19.695Z,2.6
2023-04-14T10:37:22.958Z,6.8
2023-04-14T10:39:26.258Z,6.5
2023-04-14T10:41:29.536Z,3.3
2023-04-14T10:43:32.796Z,2.9
2023-04-14T10:45:39.022Z,7.4
2023-04-14T10:47:42.329Z,1.6
2023-04-14T10:49:45.559Z,2.9
2023-04-14T10:51:49.984Z,5.6
2023-04-14T10:53:52.037Z,2.3
2023-04-14T10:57:58.518Z,2.9
2023-04-14T11:19:39.894Z,3
2023-04-14T11:21:43.099Z,3.9
2023-04-14T11:23:46.288Z,6.2
2023-04-14T11:25:49.502Z,2.5
2023-04-14T11:27:55.710Z,2.7
2023-04-14T11:36:08.376Z,9.1
2023-04-14T11:38:11.540Z,3.6
2023-04-14T11:44:24.012Z,8.1
2023-04-14T11:46:27.189Z,5.5
2023-04-14T11:48:30.240Z,7.2
2023-04-14T11:50:33.408Z,3.6
2023-04-14T11:54:39.717Z,4.7
2023-04-14T12:02:55.326Z,2.3
2023-04-14T12:07:01.334Z,6.2
2023-04-14T12:11:10.613Z,2.8
2023-04-14T12:13:13.700Z,3.1
2023-04-14T12:15:16.808Z,3.7
2023-04-14T12:16:19.945Z,3.4
2023-04-14T12:18:23.253Z,3.7
2023-04-14T12:20:26.096Z,3.1
2023-04-14T12:22:29.221Z,7.7
2023-04-14T12:24:35.327Z,3.5
2023-04-14T12:26:38.416Z,3.6
2023-04-14T12:28:41.635Z,3.7
2023-04-14T12:30:44.583Z,6.3
2023-04-14T12:32:47.687Z,4.2
2023-04-14T12:36:53.806Z,2.2
2023-04-14T12:55:27.441Z,3
2023-04-14T13:01:36.620Z,2.8
2023-04-14T13:07:48.686Z,1.6
2023-04-14T13:11:54.805Z,6.8
2023-04-14T13:12:57.833Z,1.5
2023-04-14T13:15:01.028Z,3.8
2023-04-14T13:19:07.103Z,2.6
2023-04-14T13:21:13.266Z,2.9
2023-04-14T13:23:16.353Z,3.6
2023-04-14T13:27:24.093Z,3.9
2023-04-14T13:31:30.335Z,5
2023-04-14T13:33:33.428Z,3.5
2023-04-14T13:37:42.619Z,2.7
2023-04-14T13:39:45.717Z,2.9
2023-04-14T13:41:48.862Z,3.7
2023-04-14T13:43:51.958Z,3.8
2023-04-14T13:47:58.259Z,2.6
2023-04-14T13:50:04.433Z,3.5
2023-04-14T13:54:10.738Z,4.8
2023-04-14T13:56:13.933Z,0.9
2023-04-14T14:02:23.577Z,5.1
2023-04-14T14:29:31.783Z,9.6
2023-04-14T14:41:54.341Z,3.4
2023-04-14T14:46:04.135Z,6.8
2023-04-14T14:48:07.560Z,2.4
2023-04-14T14:50:10.767Z,6.1
2023-04-14T14:52:14.036Z,2.6
2023-04-14T14:54:17.346Z,4.6
2023-04-14T14:56:20.698Z,8.9
2023-04-14T14:58:24.075Z,2.2
2023-04-14T15:05:40.430Z,7.6
2023-04-14T15:07:43.792Z,5.3
2023-04-14T15:09:47.205Z,9.1
2023-04-14T15:11:50.633Z,3.5
2023-04-14T15:13:57.036Z,5.8
2023-04-14T15:18:03.852Z,7.2
2023-04-14T15:20:07.202Z,2.9
2023-04-14T15:22:10.615Z,2.5
2023-04-14T15:24:13.914Z,5.7
2023-04-14T15:28:23.851Z,6.2
2023-04-14T15:30:28.922Z,3.7
2023-04-14T15:32:30.638Z,5.5
2023-04-14T15:36:37.453Z,3.6
2023-04-14T15:38:40.846Z,3.5
2023-04-14T15:40:44.164Z,2.7
2023-04-14T15:42:50.724Z,4.4
2023-04-14T15:44:54.142Z,2.7
2023-04-14T15:49:00.985Z,3.1
2023-04-14T15:53:07.837Z,11.1
2023-04-14T15:55:11.238Z,6.5
2023-04-14T15:57:17.802Z,4.4
2023-04-14T15:59:21.203Z,3.5
2023-04-14T16:01:24.605Z,4.6
2023-04-14T16:02:27.858Z,3.9
2023-04-14T16:04:31.232Z,3.3
2023-04-14T16:06:34.468Z,4.9
2023-04-14T16:08:37.846Z,5.8
2023-04-14T16:10:44.207Z,6.4
2023-04-14T16:12:48.523Z,5.4
2023-04-14T16:14:50.854Z,3.3
2023-04-14T16:16:55.145Z,5.9
2023-04-14T16:18:57.431Z,3.4
2023-04-14T16:21:00.846Z,2.5
2023-04-14T16:23:04.240Z,3.4
2023-04-14T16:25:10.757Z,4.9
2023-04-14T16:27:14.148Z,2.3
2023-04-14T16:29:17.527Z,3.5
2023-04-14T16:31:20.963Z,1.9
2023-04-14T16:33:24.195Z,2.6
2023-04-14T16:35:27.482Z,3.1
2023-04-14T16:41:40.492Z,5.6
2023-04-14T16:45:47.218Z,3.5
2023-04-14T16:47:50.648Z,3.2
2023-04-14T16:49:53.973Z,5.9
2023-04-14T16:54:04.191Z,5.4
2023-04-14T16:56:07.124Z,6.7
2023-04-14T16:58:10.411Z,4.2
2023-04-14T17:19:50.117Z,1.5
2023-04-14T17:24:00.257Z,4.3
2023-04-14T17:28:06.854Z,4.3
2023-04-14T17:30:11.590Z,6.5
2023-04-14T17:32:13.789Z,3.3
2023-04-14T17:34:17.186Z,9.3
2023-04-14T17:36:23.749Z,5
2023-04-14T17:38:27.213Z,2.7
2023-04-14T17:40:30.671Z,4.3
2023-04-14T17:46:41.104Z,3.7
2023-04-14T17:48:44.602Z,5.7
2023-04-14T17:50:51.200Z,4.1
2023-04-14T17:52:54.759Z,10.7
2023-04-14T17:59:25.543Z,11.3
2023-04-14T18:01:29.137Z,3
2023-04-14T18:05:39.214Z,4.2
2023-04-14T18:07:42.749Z,3.9
2023-04-14T18:09:46.287Z,3.1
2023-04-14T18:11:49.809Z,4.8
2023-04-14T18:13:53.385Z,6.1
2023-04-14T18:15:56.952Z,5
2023-04-14T18:18:03.551Z,4.7
2023-04-14T18:20:07.098Z,6.8
2023-04-14T18:22:10.650Z,6.3
2023-04-14T18:30:24.849Z,4.3
2023-04-14T18:36:38.658Z,13.5
2023-04-14T18:38:42.236Z,6.1
2023-04-14T18:40:45.839Z,6
2023-04-14T18:42:49.403Z,5.5
2023-04-14T18:44:53.020Z,5.8
2023-04-14T18:49:03.481Z,10.2
2023-04-14T18:51:06.850Z,9.5
2023-04-14T18:54:13.778Z,2.9
2023-04-14T18:58:20.975Z,3.8
2023-04-14T19:02:31.375Z,5.9
2023-04-14T19:19:03.153Z,8.6
2023-04-14T19:21:08.122Z,3.6
2023-04-14T19:23:11.696Z,11
2023-04-14T19:25:15.263Z,8.8
2023-04-14T19:27:18.877Z,13.7
2023-04-14T19:29:25.529Z,5
2023-04-14T19:31:29.165Z,5.7
2023-04-14T19:33:33.598Z,4.6
2023-04-14T19:35:37.212Z,6.2
2023-04-14T19:37:40.798Z,5.3
2023-04-14T19:39:44.407Z,7.4
2023-04-14T19:41:48.004Z,2.8
2023-04-14T19:43:54.681Z,10.9
2023-04-14T19:45:58.314Z,7.7
2023-04-14T19:48:07.383Z,6.9
2023-04-14T19:49:05.254Z,8.5
2023-04-14T19:53:12.453Z,13.4
2023-04-14T19:55:16.256Z,4.2
2023-04-14T19:57:22.734Z,9.7
2023-04-14T19:59:26.349Z,10.1
2023-04-14T20:01:29.980Z,7.7
2023-04-14T20:05:37.187Z,7.3
2023-04-14T20:18:01.953Z,13.7
2023-04-14T20:20:05.552Z,8.2
2023-04-14T20:28:23.160Z,12
2023-04-14T20:30:27.006Z,8.6
2023-04-14T20:32:30.341Z,8.1
2023-04-14T20:34:33.958Z,13.1
2023-04-14T20:38:41.297Z,11.7
2023-04-14T20:42:51.537Z,13.1
2023-04-14T20:44:55.145Z,7.8
2023-04-14T20:45:58.515Z,6.8
2023-04-14T20:48:02.160Z,9.9
2023-04-14T20:52:09.348Z,9.3
2023-04-14T20:56:19.682Z,15.1
2023-04-14T20:58:23.297Z,7.4
2023-04-14T21:00:27.015Z,12.1
2023-04-14T21:02:30.703Z,6.6
2023-04-14T21:04:34.225Z,7.9
2023-04-14T21:06:37.832Z,7.8
2023-04-14T21:08:44.568Z,9.6
2023-04-14T21:11:15.870Z,10.6
2023-04-14T21:15:31.452Z,15
2023-04-14T21:15:41.344Z,10.4
2023-04-14T21:16:59.535Z,10.4
2023-04-14T21:19:02.975Z,15.1
2023-04-14T21:21:06.359Z,10.8
2023-04-14T21:23:13.071Z,17.1
2023-04-14T21:25:16.707Z,11.6
2023-04-14T21:27:20.363Z,11.5
2023-04-14T21:29:23.996Z,15.2
2023-04-14T21:31:27.686Z,10.3
2023-04-14T21:33:31.283Z,10.7
2023-04-14T21:35:34.919Z,14.6
2023-04-14T21:39:45.251Z,10
2023-04-14T21:41:48.915Z,19.2
2023-04-14T21:44:13.180Z,9
2023-04-14T21:48:20.435Z,13.9
2023-04-14T22:13:10.384Z,10
2023-04-14T22:19:24.418Z,9.8
2023-04-14T22:21:28.063Z,12.5
2023-04-14T22:23:31.755Z,12
2023-04-14T22:25:35.389Z,16.8
2023-04-14T22:27:39.813Z,14.7
2023-04-14T22:31:47.174Z,10.6
2023-04-14T22:35:57.538Z,10.4
2023-04-14T22:38:01.215Z,12.6
2023-04-14T22:39:04.566Z,18.5
2023-04-14T22:41:08.213Z,13.1
2023-04-14T22:51:29.554Z,9.7
2023-04-14T22:53:33.195Z,10.3
2023-04-14T22:55:36.844Z,11.5
2023-04-14T22:57:40.516Z,14.3
2023-04-14T22:59:44.226Z,13.3
2023-04-14T23:01:50.966Z,10.8
2023-04-14T23:03:54.796Z,11.3
2023-04-14T23:05:58.194Z,11.7
2023-04-14T23:08:01.861Z,12.7
2023-04-14T23:10:05.511Z,12.8
2023-04-14T23:12:09.179Z,16.1
2023-04-14T23:14:12.815Z,11
2023-04-14T23:16:19.663Z,14.4
2023-04-14T23:24:34.204Z,11.5
2023-04-14T23:28:41.536Z,12.2
2023-04-14T23:30:48.310Z,14.2
2023-04-14T23:32:52.003Z,9
2023-04-14T23:34:55.638Z,15.5
2023-04-14T23:35:58.990Z,16
2023-04-14T23:38:02.638Z,9.3
2023-04-14T23:40:06.314Z,18.6
2023-04-14T23:42:10.014Z,10.9
2023-04-14T23:44:16.703Z,11.8
2023-04-14T23:46:20.454Z,12.6
2023-04-14T23:48:24.067Z,21.2
2023-04-14T23:52:31.390Z,10.9
2023-04-14T23:56:38.733Z,17.9
2023-04-14T23:58:45.448Z,12
